Time;durP1;ratioP1;P1;durP2;ratioP2;P2;SDS_P1;SDS_P2;PMS_P1;PMS_P2;Temp;Humidity;BMP_temperature;BMP_pressure;BME280_temperature;BME280_humidity;BME280_pressure;Samples;Min_cycle;Max_cycle;Signal;HPM_P1;HPM_P2
2021/11/03 07:02:34;;;;;;;23.50;9.50;;;6.30;99.90;;;;;;4875993;29;20037;-87
2021/11/03 07:05:01;;;;;;;39.17;17.67;;;6.40;99.90;;;;;;4878112;29;20053;-88
2021/11/03 07:07:28;;;;;;;71.70;25.95;;;6.40;99.90;;;;;;4877584;29;20136;-88
2021/11/03 07:09:55;;;;;;;47.20;20.17;;;6.50;99.90;;;;;;4878665;29;20052;-91
2021/11/03 07:12:23;;;;;;;84.07;33.45;;;6.60;99.90;;;;;;4859119;29;20045;-91
2021/11/03 07:14:49;;;;;;;123.82;43.28;;;6.60;99.90;;;;;;4869020;29;20060;-91
2021/11/03 07:17:16;;;;;;;13.43;4.85;;;6.70;99.90;;;;;;4877586;29;20100;-88
2021/11/03 07:19:44;;;;;;;23.45;8.32;;;6.70;99.90;;;;;;4872255;29;20041;-90
2021/11/03 07:22:11;;;;;;;39.25;17.98;;;6.80;99.90;;;;;;4867123;29;20049;-89
2021/11/03 07:24:38;;;;;;;18.45;4.25;;;6.90;99.90;;;;;;4848841;29;20505;-90
2021/11/03 07:27:06;;;;;;;13.73;4.22;;;7.00;99.90;;;;;;4877758;29;20072;-91
2021/11/03 07:29:34;;;;;;;30.48;12.52;;;7.00;99.90;;;;;;4862223;29;20514;-90
2021/11/03 07:32:01;;;;;;;9.38;2.80;;;7.10;99.90;;;;;;4877206;29;20049;-90
2021/11/03 07:34:28;;;;;;;12.07;3.55;;;7.10;99.90;;;;;;4860726;29;20041;-90
2021/11/03 07:36:56;;;;;;;12.90;5.72;;;7.10;99.90;;;;;;4860928;29;20068;-89
2021/11/03 07:39:23;;;;;;;10.25;3.33;;;7.10;99.90;;;;;;4861651;29;20049;-90
2021/11/03 07:41:51;;;;;;;16.92;9.35;;;7.20;99.90;;;;;;4877536;29;20434;-90
2021/11/03 07:44:18;;;;;;;25.20;6.43;;;7.20;99.90;;;;;;4873110;29;20125;-91
2021/11/03 07:46:45;;;;;;;11.45;3.00;;;7.20;99.90;;;;;;4877066;29;20101;-90
2021/11/03 07:49:14;;;;;;;13.10;7.68;;;7.30;99.90;;;;;;4858328;29;20045;-90
2021/11/03 07:51:41;;;;;;;33.58;15.15;;;7.30;99.90;;;;;;4847986;29;20113;-89
2021/11/03 07:54:08;;;;;;;14.02;7.05;;;7.40;99.90;;;;;;4876639;29;20453;-90
2021/11/03 07:56:37;;;;;;;14.00;5.05;;;7.40;99.90;;;;;;4875191;29;20052;-91
2021/11/03 07:59:05;;;;;;;11.52;4.75;;;7.50;99.90;;;;;;4868461;29;20076;-86
2021/11/03 08:01:33;;;;;;;14.57;5.95;;;7.50;99.90;;;;;;4849695;29;20057;-90
2021/11/03 08:04:00;;;;;;;17.85;4.95;;;7.60;99.90;;;;;;4874770;29;20051;-89
2021/11/03 08:06:28;;;;;;;12.85;4.80;;;7.60;99.90;;;;;;4878037;29;20041;-90
2021/11/03 08:09:06;;;;;;;13.68;4.90;;;7.70;99.90;;;;;;4861626;29;20132;-90
2021/11/03 08:11:48;;;;;;;10.18;4.25;;;7.80;99.90;;;;;;4846545;29;20041;-90
2021/11/03 08:14:19;;;;;;;5.97;2.08;;;7.90;99.90;;;;;;4877216;29;20128;-89
2021/11/03 08:16:55;;;;;;;11.23;3.10;;;8.00;99.90;;;;;;4877552;29;20049;-89
2021/11/03 08:19:28;;;;;;;8.13;1.90;;;8.10;99.90;;;;;;4867586;29;20042;-90
2021/11/03 08:21:55;;;;;;;11.93;6.70;;;8.20;99.90;;;;;;4878393;29;20105;-90
2021/11/03 08:24:22;;;;;;;8.55;3.08;;;8.40;99.90;;;;;;4878074;29;20109;-89
2021/11/03 08:26:52;;;;;;;3.63;1.08;;;8.50;99.90;;;;;;4878555;29;20105;-90
2021/11/03 08:29:20;;;;;;;4.63;1.20;;;8.60;99.90;;;;;;4861455;29;20110;-89
2021/11/03 08:31:51;;;;;;;2.88;0.73;;;8.60;99.90;;;;;;4865348;29;20053;-90
2021/11/03 08:34:18;;;;;;;8.45;0.82;;;8.70;99.90;;;;;;4865128;29;20065;-90
2021/11/03 08:36:46;;;;;;;4.55;0.80;;;8.80;99.90;;;;;;4865913;29;20072;-90
2021/11/03 08:39:13;;;;;;;2.85;0.85;;;8.80;99.90;;;;;;4881198;29;20114;-90
2021/11/03 08:41:40;;;;;;;0.85;0.40;;;9.00;99.90;;;;;;4865019;29;20513;-90
2021/11/03 08:44:07;;;;;;;3.50;0.77;;;9.00;99.90;;;;;;4859135;29;20582;-89
2021/11/03 08:46:35;;;;;;;5.35;1.30;;;9.10;99.90;;;;;;4879432;29;20049;-89
2021/11/03 08:49:03;;;;;;;3.90;1.33;;;9.20;99.90;;;;;;4849766;29;20563;-89
2021/11/03 08:51:35;;;;;;;3.03;0.93;;;9.20;99.90;;;;;;4861720;29;20475;-88
2021/11/03 08:54:04;;;;;;;3.20;1.33;;;9.30;99.90;;;;;;4881046;29;20125;-87
2021/11/03 08:56:32;;;;;;;2.47;0.85;;;9.40;99.90;;;;;;4879606;29;20109;-89
2021/11/03 08:58:59;;;;;;;3.40;0.60;;;9.50;99.90;;;;;;4864763;29;20048;-88
2021/11/03 09:01:27;;;;;;;5.68;1.10;;;9.60;99.90;;;;;;4878329;29;20045;-89
2021/11/03 09:03:55;;;;;;;3.63;0.88;;;9.70;99.90;;;;;;4881356;29;20060;-88
2021/11/03 09:06:22;;;;;;;2.13;0.60;;;9.80;99.90;;;;;;4880064;29;20117;-87
2021/11/03 09:08:50;;;;;;;6.07;0.90;;;9.90;99.90;;;;;;4872281;29;20110;-89
2021/11/03 09:11:19;;;;;;;5.78;1.02;;;10.00;99.90;;;;;;4879042;29;20119;-89
2021/11/03 09:13:47;;;;;;;11.50;1.23;;;10.10;99.90;;;;;;4877189;29;20097;-89
2021/11/03 09:16:16;;;;;;;7.15;1.52;;;10.10;99.90;;;;;;4879245;29;20052;-88
2021/11/03 09:18:44;;;;;;;7.82;1.92;;;10.20;99.90;;;;;;4879268;29;20510;-89
2021/11/03 09:21:11;;;;;;;8.90;2.67;;;10.30;99.90;;;;;;4861977;29;20073;-89
2021/11/03 09:23:42;;;;;;;7.65;1.20;;;10.30;99.90;;;;;;4880120;29;20060;-88
2021/11/03 09:26:09;;;;;;;5.60;1.52;;;10.40;99.90;;;;;;4875905;29;20053;-88
2021/11/03 09:28:37;;;;;;;5.43;1.13;;;10.50;99.90;;;;;;4859207;29;20049;-88
2021/11/03 09:31:06;;;;;;;6.78;0.70;;;10.50;99.90;;;;;;4864256;29;20411;-86
2021/11/03 09:33:36;;;;;;;10.07;1.38;;;10.70;99.90;;;;;;4877840;29;20139;-88
2021/11/03 09:36:06;;;;;;;2.97;0.90;;;10.70;99.90;;;;;;4878326;29;20109;-87
2021/11/03 09:38:34;;;;;;;6.53;1.02;;;10.80;99.90;;;;;;4864079;29;20037;-87
2021/11/03 09:41:35;;;;;;;6.37;0.80;;;10.90;99.90;;;;;;4863407;29;20060;-88
2021/11/03 09:44:16;;;;;;;7.20;0.82;;;10.90;99.90;;;;;;4863457;29;20057;-89
2021/11/03 09:46:46;;;;;;;4.93;0.85;;;11.00;99.90;;;;;;4878583;29;20045;-92
2021/11/03 09:49:37;;;;;;;5.32;1.10;;;11.00;99.90;;;;;;4876347;29;20052;-88
2021/11/03 09:52:14;;;;;;;5.15;0.93;;;11.10;99.90;;;;;;4875034;29;20061;-88
2021/11/03 09:54:44;;;;;;;3.47;0.70;;;11.10;99.90;;;;;;4878558;29;20113;-90
2021/11/03 09:57:35;;;;;;;2.50;1.10;;;11.20;99.90;;;;;;4879190;29;20479;-88
2021/11/03 10:00:21;;;;;;;4.85;0.98;;;11.20;99.90;;;;;;4863368;29;20110;-90
2021/11/03 10:03:20;;;;;;;6.30;0.90;;;11.20;99.90;;;;;;4880807;29;20426;-89
2021/11/03 10:05:53;;;;;;;8.88;0.93;;;11.30;99.90;;;;;;4859509;29;20101;-90
2021/11/03 10:08:27;;;;;;;3.85;0.73;;;11.30;99.90;;;;;;4878282;29;20517;-90
2021/11/03 10:10:56;;;;;;;8.23;1.02;;;11.30;99.90;;;;;;4876939;29;20825;-90
2021/11/03 10:13:27;;;;;;;3.10;0.70;;;11.30;99.90;;;;;;4870756;29;20566;-89
2021/11/03 10:16:00;;;;;;;5.38;0.80;;;11.30;99.90;;;;;;4879993;29;20415;-89
2021/11/03 10:18:31;;;;;;;6.20;0.98;;;11.30;99.90;;;;;;4866785;29;20049;-89
2021/11/03 10:21:04;;;;;;;4.40;0.93;;;11.30;99.90;;;;;;4863443;29;20397;-91
2021/11/03 10:23:34;;;;;;;4.82;0.77;;;11.40;99.90;;;;;;4878389;29;20045;-89
2021/11/03 10:26:08;;;;;;;2.60;0.70;;;11.40;99.90;;;;;;4857242;29;20096;-90
2021/11/03 10:28:42;;;;;;;8.35;1.00;;;11.50;99.90;;;;;;4879454;29;20100;-89
2021/11/03 10:31:30;;;;;;;5.13;0.70;;;11.50;99.90;;;;;;4879798;29;20213;-91
2021/11/03 10:34:06;;;;;;;3.60;0.90;;;11.50;99.90;;;;;;4863739;29;20635;-91
2021/11/03 10:36:40;;;;;;;2.40;0.70;;;11.50;99.90;;;;;;4844691;29;20434;-90
2021/11/03 10:39:18;;;;;;;8.10;0.70;;;11.50;99.90;;;;;;4860407;29;20052;-89
2021/11/03 10:42:01;;;;;;;5.75;0.88;;;11.50;99.90;;;;;;4861158;29;20192;-89
2021/11/03 10:44:32;;;;;;;4.43;0.90;;;11.50;99.90;;;;;;4844839;29;20054;-89
2021/11/03 10:47:15;;;;;;;5.97;0.80;;;11.50;99.90;;;;;;4876858;29;20423;-89
2021/11/03 10:49:54;;;;;;;6.00;0.98;;;11.60;99.90;;;;;;4878926;29;20049;-90
2021/11/03 10:52:39;;;;;;;6.70;0.98;;;11.60;99.90;;;;;;4879111;29;20049;-89
2021/11/03 10:55:29;;;;;;;3.67;0.70;;;11.60;99.90;;;;;;4879236;29;20049;-88
2021/11/03 10:58:12;;;;;;;2.53;0.80;;;11.70;99.90;;;;;;4879552;29;20053;-91
2021/11/03 11:01:06;;;;;;;3.38;0.77;;;11.80;99.90;;;;;;4865595;29;20105;-91
2021/11/03 11:03:53;;;;;;;1.88;0.90;;;11.80;99.90;;;;;;4849316;29;20072;-90
2021/11/03 11:06:39;;;;;;;4.22;0.70;;;11.90;99.90;;;;;;4848032;29;20053;-90
2021/11/03 11:09:09;;;;;;;2.85;0.80;;;11.90;99.90;;;;;;4879058;29;20631;-95
2021/11/03 11:11:39;;;;;;;3.40;1.00;;;11.90;99.90;;;;;;4863127;29;20064;-89
2021/11/03 11:14:33;;;;;;;4.50;0.80;;;11.90;99.90;;;;;;4862620;29;20160;-91
2021/11/03 11:17:23;;;;;;;5.28;0.70;;;11.90;99.90;;;;;;4860139;29;20506;-90
2021/11/03 11:20:06;;;;;;;4.90;1.05;;;12.00;99.90;;;;;;4856548;29;20064;-90
2021/11/03 11:22:55;;;;;;;6.78;0.90;;;12.00;99.90;;;;;;4865037;29;20077;-91
2021/11/03 11:25:49;;;;;;;5.78;1.38;;;12.00;99.90;;;;;;4873413;29;20046;-88
2021/11/03 11:28:24;;;;;;;4.38;1.00;;;12.10;99.90;;;;;;4857579;29;20073;-91
2021/11/03 11:31:10;;;;;;;5.43;0.70;;;12.10;99.90;;;;;;4870330;29;20108;-93
2021/11/03 11:34:15;;;;;;;3.40;0.60;;;12.20;99.90;;;;;;4867802;29;20155;-90
2021/11/03 11:36:58;;;;;;;5.32;0.65;;;12.20;99.90;;;;;;4860743;29;20045;-91
2021/11/03 11:39:39;;;;;;;4.97;0.85;;;12.30;99.90;;;;;;4846022;29;20543;-89
2021/11/03 11:42:40;;;;;;;2.30;0.55;;;12.40;99.90;;;;;;4868164;29;20049;-89
2021/11/03 11:45:18;;;;;;;3.97;0.80;;;12.40;99.90;;;;;;4796438;29;20055;-89
2021/11/03 11:48:05;;;;;;;2.90;0.50;;;12.50;99.90;;;;;;4815702;29;20118;-93
2021/11/03 11:50:39;;;;;;;3.05;0.70;;;12.50;99.90;;;;;;4821755;29;20109;-93
2021/11/03 11:53:47;;;;;;;3.33;0.85;;;12.50;99.90;;;;;;4816755;29;20148;-92
2021/11/03 11:56:19;;;;;;;5.13;1.17;;;12.50;99.90;;;;;;4743352;30;20090;-88
2021/11/03 11:58:49;;;;;;;5.75;1.45;;;12.50;99.90;;;;;;4742726;30;20058;-91
2021/11/03 12:01:21;;;;;;;4.07;1.50;;;12.50;99.90;;;;;;4730922;30;20071;-90
2021/11/03 12:03:57;;;;;;;6.28;1.05;;;12.50;99.90;;;;;;4737159;30;20057;-89
2021/11/03 12:06:42;;;;;;;4.88;1.65;;;12.50;99.90;;;;;;4740818;30;20139;-89
2021/11/03 12:09:32;;;;;;;3.40;0.73;;;12.50;99.90;;;;;;4730336;30;20133;-93
2021/11/03 12:12:07;;;;;;;3.72;1.00;;;12.40;99.90;;;;;;4734832;30;20063;-92
2021/11/03 12:14:52;;;;;;;2.90;0.80;;;12.40;99.90;;;;;;4749523;30;20052;-91
2021/11/03 12:17:51;;;;;;;4.45;0.88;;;12.40;99.90;;;;;;4749921;30;20542;-91
2021/11/03 12:20:27;;;;;;;3.85;0.90;;;12.50;99.90;;;;;;4744463;30;20056;-91
2021/11/03 12:22:57;;;;;;;5.28;1.55;;;12.60;99.90;;;;;;4781245;29;20087;-92
2021/11/03 12:25:24;;;;;;;1.70;0.63;;;12.70;99.90;;;;;;4771361;29;20056;-92
2021/11/03 12:27:54;;;;;;;3.92;1.42;;;12.90;99.90;;;;;;4773253;30;20065;-91
2021/11/03 12:30:24;;;;;;;4.22;1.55;;;12.80;99.90;;;;;;4768338;30;20477;-94
2021/11/03 12:32:50;;;;;;;2.10;0.68;;;12.80;99.90;;;;;;4854504;29;20053;-91
2021/11/03 12:35:17;;;;;;;4.88;0.90;;;12.80;99.90;;;;;;4878255;29;20511;-94
2021/11/03 12:37:58;;;;;;;3.95;0.55;;;12.80;99.90;;;;;;4882044;29;20085;-94
2021/11/03 12:40:40;;;;;;;4.40;0.68;;;12.70;99.90;;;;;;4864275;29;20057;-92
2021/11/03 12:43:10;;;;;;;1.48;0.50;;;12.60;99.90;;;;;;4879568;29;20433;-91
2021/11/03 12:45:52;;;;;;;1.83;0.60;;;12.60;99.90;;;;;;4879268;29;20053;-92
2021/11/03 12:48:25;;;;;;;3.42;0.60;;;12.60;99.90;;;;;;4878368;29;20121;-92
2021/11/03 12:50:52;;;;;;;2.25;0.55;;;12.70;99.90;;;;;;4878217;29;20078;-93
2021/11/03 12:53:23;;;;;;;3.08;0.68;;;12.70;99.90;;;;;;4878192;29;20121;-92
2021/11/03 12:56:02;;;;;;;4.53;0.65;;;12.70;99.90;;;;;;4878710;29;20101;-92
2021/11/03 12:58:33;;;;;;;3.47;0.88;;;12.70;99.90;;;;;;4878188;29;20463;-93
2021/11/03 13:01:06;;;;;;;3.55;0.75;;;12.60;99.90;;;;;;4879349;29;20065;-92
2021/11/03 13:03:43;;;;;;;3.58;0.95;;;12.60;99.90;;;;;;4880041;29;20041;-95
2021/11/03 13:06:12;;;;;;;2.20;0.70;;;12.60;99.90;;;;;;4879120;29;20053;-93
2021/11/03 13:08:43;;;;;;;3.33;0.68;;;12.60;99.90;;;;;;4863089;29;20074;-93
2021/11/03 13:11:22;;;;;;;0.85;0.40;;;12.60;99.90;;;;;;4860315;29;20052;-96
2021/11/03 13:13:59;;;;;;;1.67;0.60;;;12.60;99.90;;;;;;4878448;29;20041;-92
2021/11/03 13:16:44;;;;;;;2.20;0.60;;;12.60;99.90;;;;;;4881118;29;20041;-93
2021/11/03 13:19:20;;;;;;;2.40;0.60;;;12.60;99.90;;;;;;4872438;29;20152;-90
2021/11/03 13:21:49;;;;;;;4.32;0.50;;;12.60;99.90;;;;;;4861624;29;20499;-90
2021/11/03 13:24:32;;;;;;;2.25;0.50;;;12.60;99.90;;;;;;4880582;29;20053;-93
2021/11/03 13:27:08;;;;;;;1.40;0.30;;;12.60;99.90;;;;;;4866210;29;20048;-91
2021/11/03 13:29:39;;;;;;;2.50;0.50;;;12.70;99.90;;;;;;4865264;29;20101;-89
2021/11/03 13:32:20;;;;;;;2.25;0.43;;;12.70;99.90;;;;;;4848809;29;20125;-92
2021/11/03 13:34:50;;;;;;;3.08;0.47;;;12.70;99.90;;;;;;4874497;29;20121;-90
2021/11/03 13:37:25;;;;;;;2.92;0.57;;;12.70;99.90;;;;;;4881845;29;20502;-94
2021/11/03 13:40:07;;;;;;;3.08;0.43;;;12.80;99.90;;;;;;4882333;29;20049;-89
2021/11/03 13:42:48;;;;;;;3.03;0.70;;;12.80;99.90;;;;;;4863451;29;20042;-90
2021/11/03 13:45:26;;;;;;;1.77;0.60;;;12.70;99.90;;;;;;4881270;29;20056;-89
2021/11/03 13:48:19;;;;;;;3.80;0.60;;;12.60;99.90;;;;;;4876627;29;20582;-92
2021/11/03 13:50:50;;;;;;;1.70;0.40;;;12.50;99.90;;;;;;4861764;29;20105;-89
2021/11/03 13:53:17;;;;;;;1.85;0.50;;;12.40;99.90;;;;;;4880540;29;20049;-89
2021/11/03 13:56:02;;;;;;;3.10;0.55;;;12.30;99.90;;;;;;4864931;29;20536;-92
2021/11/03 13:58:42;;;;;;;4.72;0.47;;;12.20;99.90;;;;;;4880625;29;20120;-92
2021/11/03 14:01:15;;;;;;;2.50;0.40;;;12.10;99.90;;;;;;4863345;29;20053;-89
2021/11/03 14:03:55;;;;;;;2.58;0.40;;;12.10;99.90;;;;;;4880308;29;20052;-94
2021/11/03 14:06:30;;;;;;;1.40;0.32;;;12.00;99.90;;;;;;4877761;29;20045;-91
2021/11/03 14:09:13;;;;;;;3.00;0.52;;;11.90;99.90;;;;;;4850889;29;20073;-92
2021/11/03 14:11:41;;;;;;;1.48;0.40;;;11.90;99.90;;;;;;4861549;29;20093;-93
2021/11/03 14:14:09;;;;;;;1.25;0.40;;;11.80;99.90;;;;;;4878354;29;20053;-90
2021/11/03 14:16:55;;;;;;;2.60;0.50;;;11.80;99.90;;;;;;4869876;29;20049;-90
2021/11/03 14:19:27;;;;;;;1.05;0.57;;;11.70;99.90;;;;;;4870794;29;20133;-89
2021/11/03 14:21:56;;;;;;;3.05;0.68;;;11.60;99.90;;;;;;4871313;29;20053;-89
2021/11/03 14:24:26;;;;;;;1.55;0.40;;;11.50;99.90;;;;;;4848210;29;20056;-92
2021/11/03 14:26:53;;;;;;;2.90;0.50;;;11.50;99.90;;;;;;4880338;29;20053;-90
2021/11/03 14:29:21;;;;;;;5.07;0.80;;;11.40;99.90;;;;;;4879209;29;20510;-91
2021/11/03 14:31:50;;;;;;;3.25;0.60;;;11.30;99.90;;;;;;4877900;29;20057;-90
2021/11/03 14:34:26;;;;;;;2.30;0.50;;;11.30;99.90;;;;;;4880195;29;20063;-92
2021/11/03 14:36:53;;;;;;;3.83;0.80;;;11.30;99.90;;;;;;4879128;29;20053;-94
2021/11/03 14:39:27;;;;;;;2.30;0.60;;;11.30;99.90;;;;;;4862996;29;20060;-90
2021/11/03 14:41:57;;;;;;;4.03;0.60;;;11.30;99.90;;;;;;4861649;29;20042;-90
2021/11/03 14:44:24;;;;;;;4.53;0.63;;;11.30;99.90;;;;;;4859117;29;20116;-90
2021/11/03 14:46:56;;;;;;;1.70;0.55;;;11.20;99.90;;;;;;4862675;29;20057;-89
2021/11/03 14:49:27;;;;;;;1.30;0.50;;;11.20;99.90;;;;;;4851797;29;20101;-90
2021/11/03 14:51:54;;;;;;;2.05;0.40;;;11.20;99.90;;;;;;4869259;29;20057;-89
2021/11/03 14:54:22;;;;;;;3.42;0.68;;;11.10;99.90;;;;;;4863542;29;20114;-94
2021/11/03 14:56:53;;;;;;;2.60;0.52;;;11.00;99.90;;;;;;4851215;29;20111;-94
2021/11/03 14:59:20;;;;;;;2.13;0.20;;;11.00;99.90;;;;;;4859246;29;20057;-92
2021/11/03 15:01:55;;;;;;;2.00;0.80;;;10.90;99.90;;;;;;4879351;29;20053;-88
2021/11/03 15:04:30;;;;;;;4.03;0.68;;;10.80;99.90;;;;;;4878829;29;20049;-90
2021/11/03 15:06:57;;;;;;;1.42;0.70;;;10.80;99.90;;;;;;4862199;29;20131;-88
2021/11/03 15:09:42;;;;;;;3.42;0.70;;;10.70;99.90;;;;;;4865653;29;20049;-88
2021/11/03 15:12:12;;;;;;;2.10;0.80;;;10.60;99.90;;;;;;4859966;29;20049;-88
2021/11/03 15:14:41;;;;;;;2.28;0.60;;;10.60;99.90;;;;;;4878612;29;20045;-88
2021/11/03 15:17:21;;;;;;;2.13;0.40;;;10.60;99.90;;;;;;4877905;29;20606;-89
2021/11/03 15:20:01;;;;;;;5.28;0.73;;;10.50;99.90;;;;;;4863020;29;20057;-90
2021/11/03 15:22:28;;;;;;;2.97;0.80;;;10.40;99.90;;;;;;4878717;29;20045;-89
2021/11/03 15:24:56;;;;;;;3.20;0.87;;;10.40;99.90;;;;;;4878905;29;20053;-91
2021/11/03 15:27:24;;;;;;;3.30;0.73;;;10.40;99.90;;;;;;4864089;29;20294;-88
2021/11/03 15:29:52;;;;;;;6.05;0.80;;;10.30;99.90;;;;;;4862070;29;20113;-90
2021/11/03 15:32:24;;;;;;;5.00;0.90;;;10.20;99.90;;;;;;4870619;29;20050;-92
2021/11/03 15:34:53;;;;;;;2.35;0.70;;;10.20;99.90;;;;;;4875055;29;20118;-88
2021/11/03 15:37:27;;;;;;;2.80;0.60;;;10.10;99.90;;;;;;4875038;29;20057;-88
2021/11/03 15:40:09;;;;;;;4.68;0.90;;;10.00;99.90;;;;;;4872115;29;20049;-91
2021/11/03 15:42:37;;;;;;;3.85;0.68;;;9.90;99.90;;;;;;4855803;29;20052;-87
2021/11/03 15:45:05;;;;;;;4.75;1.00;;;9.90;99.90;;;;;;4840323;29;20053;-90
2021/11/03 15:47:33;;;;;;;2.28;0.70;;;9.90;99.90;;;;;;4855331;29;20111;-95
2021/11/03 15:50:20;;;;;;;4.35;0.90;;;9.80;99.90;;;;;;4873688;29;20057;-90
2021/11/03 15:52:55;;;;;;;4.65;0.90;;;9.80;99.90;;;;;;4878359;29;20410;-90
2021/11/03 15:55:24;;;;;;;2.65;1.05;;;9.80;99.90;;;;;;4876174;29;20049;-91
2021/11/03 15:57:53;;;;;;;4.72;0.75;;;9.70;99.90;;;;;;4862451;29;20053;-91
2021/11/03 16:00:23;;;;;;;2.65;0.60;;;9.70;99.90;;;;;;4852278;29;20392;-91
2021/11/03 16:02:56;;;;;;;2.38;0.60;;;9.70;99.90;;;;;;4878807;29;20437;-91
2021/11/03 16:05:31;;;;;;;5.38;0.65;;;9.60;99.90;;;;;;4879169;29;20564;-95
2021/11/03 16:07:59;;;;;;;1.55;0.50;;;9.50;99.90;;;;;;4877893;29;20059;-91
2021/11/03 16:10:31;;;;;;;1.17;0.47;;;9.50;99.90;;;;;;4868380;29;20045;-92
2021/11/03 16:12:59;;;;;;;3.58;0.90;;;9.50;99.90;;;;;;4878065;29;20140;-91
2021/11/03 16:15:26;;;;;;;6.75;0.60;;;9.50;99.90;;;;;;4877878;29;20053;-91
2021/11/03 16:17:53;;;;;;;2.72;0.60;;;9.50;99.90;;;;;;4866535;29;20057;-90
2021/11/03 16:20:22;;;;;;;5.30;0.85;;;9.50;99.90;;;;;;4867780;29;20080;-90
2021/11/03 16:22:53;;;;;;;3.08;0.60;;;9.50;99.90;;;;;;4877280;29;20114;-90
2021/11/03 16:25:26;;;;;;;3.15;0.93;;;9.50;99.90;;;;;;4877414;29;20136;-92
2021/11/03 16:27:53;;;;;;;2.25;0.50;;;9.50;99.90;;;;;;4866496;29;20056;-90
2021/11/03 16:30:26;;;;;;;2.05;0.50;;;9.50;99.90;;;;;;4862392;29;20557;-90
2021/11/03 16:32:53;;;;;;;1.80;0.73;;;9.50;99.90;;;;;;4877773;29;20471;-90
2021/11/03 16:35:21;;;;;;;4.38;0.90;;;9.40;99.90;;;;;;4860513;29;20053;-88
2021/11/03 16:37:49;;;;;;;1.77;0.67;;;9.40;99.90;;;;;;4877196;29;20097;-88
2021/11/03 16:40:19;;;;;;;3.33;0.80;;;9.40;99.90;;;;;;4861318;29;20133;-90
2021/11/03 16:42:48;;;;;;;1.50;0.88;;;9.40;99.90;;;;;;4861551;29;20049;-92
2021/11/03 16:45:15;;;;;;;1.73;0.60;;;9.30;99.90;;;;;;4861100;29;20053;-92
2021/11/03 16:47:46;;;;;;;2.17;0.77;;;9.30;99.90;;;;;;4878520;29;20052;-91
2021/11/03 16:50:18;;;;;;;3.05;1.10;;;9.30;99.90;;;;;;4860439;29;20117;-90
2021/11/03 16:52:45;;;;;;;2.90;0.70;;;9.20;99.90;;;;;;4881172;29;20041;-91
2021/11/03 16:55:15;;;;;;;3.20;0.88;;;9.20;99.90;;;;;;4860430;29;20045;-89
2021/11/03 16:57:43;;;;;;;5.13;1.35;;;9.10;99.90;;;;;;4868169;29;20502;-90
2021/11/03 17:00:22;;;;;;;3.45;0.98;;;9.10;99.90;;;;;;4871805;29;20057;-90
2021/11/03 17:02:52;;;;;;;1.80;1.08;;;9.00;99.90;;;;;;4881078;29;20133;-90
2021/11/03 17:05:39;;;;;;;2.08;0.80;;;9.00;99.90;;;;;;4878897;29;20044;-90
2021/11/03 17:08:32;;;;;;;1.90;0.82;;;8.90;99.90;;;;;;4880313;29;20057;-89
2021/11/03 17:11:18;;;;;;;2.78;1.23;;;8.90;99.90;;;;;;4872450;29;20045;-91
2021/11/03 17:13:45;;;;;;;2.80;0.93;;;8.80;99.90;;;;;;4880837;29;20068;-91
2021/11/03 17:16:12;;;;;;;4.55;1.55;;;8.80;99.90;;;;;;4863815;29;20057;-89
2021/11/03 17:18:40;;;;;;;8.30;1.80;;;8.80;99.90;;;;;;4880970;29;20144;-90
2021/11/03 17:21:08;;;;;;;8.15;1.98;;;8.70;99.90;;;;;;4877416;29;20049;-90
2021/11/03 17:23:37;;;;;;;8.03;2.43;;;8.70;99.90;;;;;;4880075;29;20101;-90
2021/11/03 17:26:33;;;;;;;10.73;3.45;;;8.70;99.90;;;;;;4876732;29;20120;-88
2021/11/03 17:29:24;;;;;;;7.55;2.00;;;8.70;99.90;;;;;;4878089;29;20064;-91
2021/11/03 17:31:55;;;;;;;6.47;2.28;;;8.70;99.90;;;;;;4862090;29;20510;-91
2021/11/03 17:34:22;;;;;;;9.55;2.75;;;8.60;99.90;;;;;;4863483;29;20053;-89
2021/11/03 17:36:49;;;;;;;7.47;2.20;;;8.60;99.90;;;;;;4873515;29;20045;-89
2021/11/03 17:39:20;;;;;;;10.35;2.80;;;8.60;99.90;;;;;;4879470;29;20561;-89
2021/11/03 17:41:53;;;;;;;8.57;3.00;;;8.60;99.90;;;;;;4880744;29;20061;-89
2021/11/03 17:44:36;;;;;;;9.77;2.95;;;8.60;99.90;;;;;;4878095;29;20052;-89
2021/11/03 17:47:06;;;;;;;8.38;3.30;;;8.60;99.90;;;;;;4861383;29;20053;-91
2021/11/03 17:49:39;;;;;;;7.60;3.15;;;8.60;99.90;;;;;;4864125;29;20052;-92
2021/11/03 17:52:07;;;;;;;8.68;3.72;;;8.50;99.90;;;;;;4878601;29;20073;-89
2021/11/03 17:54:38;;;;;;;7.97;2.25;;;8.50;99.90;;;;;;4879552;29;20049;-90
2021/11/03 17:57:28;;;;;;;9.48;2.97;;;8.50;99.90;;;;;;4877888;29;20057;-89
2021/11/03 17:59:57;;;;;;;19.05;3.65;;;8.50;99.90;;;;;;4873254;29;20049;-93
2021/11/03 18:02:27;;;;;;;10.27;2.97;;;8.50;99.90;;;;;;4861790;29;20499;-93
2021/11/03 18:05:01;;;;;;;11.18;2.40;;;8.50;99.90;;;;;;4872560;29;20080;-92
2021/11/03 18:07:29;;;;;;;5.82;2.53;;;8.60;99.90;;;;;;4868695;29;20477;-90
2021/11/03 18:09:57;;;;;;;12.57;3.08;;;8.60;99.90;;;;;;4868361;29;20057;-93
2021/11/03 18:12:27;;;;;;;6.13;1.63;;;8.60;99.90;;;;;;4861489;29;20111;-93
2021/11/03 18:14:56;;;;;;;11.82;2.60;;;8.70;99.90;;;;;;4876858;29;20046;-94
2021/11/03 18:17:25;;;;;;;;;;;8.70;99.90;;;;;;4855983;29;20052;-93
2021/11/03 18:19:53;;;;;;;11.18;2.28;;;8.70;99.90;;;;;;4870884;29;19980;-93
2021/11/03 18:22:21;;;;;;;9.93;2.88;;;8.70;99.90;;;;;;4876063;29;20073;-93
2021/11/03 18:24:48;;;;;;;7.32;2.65;;;8.70;99.90;;;;;;4864483;29;20723;-95
2021/11/03 18:27:30;;;;;;;16.42;3.33;;;8.80;99.90;;;;;;4857689;29;20054;-93
2021/11/03 18:30:30;;;;;;;9.93;3.05;;;8.80;99.90;;;;;;4848382;29;20132;-93
2021/11/03 18:33:01;;;;;;;7.82;2.17;;;8.80;99.90;;;;;;4797264;29;20062;-92
2021/11/03 18:35:29;;;;;;;11.55;2.38;;;8.70;99.90;;;;;;4800761;29;20051;-92
2021/11/03 18:37:56;;;;;;;10.10;3.20;;;8.70;99.90;;;;;;4789761;29;20071;-93
2021/11/03 18:40:28;;;;;;;11.30;2.28;;;8.70;99.90;;;;;;4787812;29;20471;-92
2021/11/03 18:43:02;;;;;;;13.52;2.80;;;8.70;99.90;;;;;;4791374;29;20073;-95
2021/11/03 18:45:36;;;;;;;10.77;2.78;;;8.70;99.90;;;;;;4782095;29;20063;-94
2021/11/03 18:48:06;;;;;;;7.70;2.85;;;8.60;99.90;;;;;;4804269;29;20051;-93
2021/11/03 18:50:38;;;;;;;9.15;3.15;;;8.60;99.90;;;;;;4786832;29;20099;-92
2021/11/03 18:53:20;;;;;;;10.43;2.88;;;8.60;99.90;;;;;;4804645;29;20059;-92
2021/11/03 18:55:49;;;;;;;11.05;4.32;;;8.60;99.90;;;;;;4799259;29;20206;-91
2021/11/03 18:58:20;;;;;;;39.38;18.45;;;8.50;99.90;;;;;;4797776;29;20059;-93
2021/11/03 19:00:49;;;;;;;10.25;3.50;;;8.50;99.90;;;;;;4803775;29;20813;-93
2021/11/03 19:03:20;;;;;;;10.75;2.85;;;8.50;99.90;;;;;;4803854;29;20055;-92
2021/11/03 19:05:51;;;;;;;6.57;1.85;;;8.50;99.90;;;;;;4783570;29;20081;-93
2021/11/03 19:08:27;;;;;;;11.15;2.17;;;8.50;99.90;;;;;;4804684;29;20054;-94
2021/11/03 19:10:57;;;;;;;6.35;1.70;;;8.40;99.90;;;;;;4863114;29;20056;-96
2021/11/03 19:13:29;;;;;;;13.23;2.33;;;8.40;99.90;;;;;;4869332;29;20052;-94
2021/11/03 19:16:00;;;;;;;8.73;2.38;;;8.40;99.90;;;;;;4875754;29;20138;-95
2021/11/03 19:18:29;;;;;;;9.50;2.63;;;8.40;99.90;;;;;;4843572;29;20072;-95
2021/11/03 19:21:01;;;;;;;7.68;1.70;;;8.50;99.90;;;;;;4878418;29;20545;-96
2021/11/03 19:23:35;;;;;;;14.18;2.08;;;8.50;99.90;;;;;;4873032;29;20049;-96
2021/11/03 19:26:13;;;;;;;6.47;1.73;;;8.50;99.90;;;;;;4874426;29;20059;-96
2021/11/03 19:28:42;;;;;;;8.82;1.80;;;8.60;99.90;;;;;;4856415;29;20112;-93
2021/11/03 19:31:10;;;;;;;13.55;2.58;;;8.60;99.90;;;;;;4855229;29;20403;-95
2021/11/03 19:33:39;;;;;;;3.60;1.13;;;8.60;99.90;;;;;;4864384;29;20074;-92
2021/11/03 19:36:25;;;;;;;8.10;1.40;;;8.60;99.90;;;;;;4861360;29;20053;-94
2021/11/03 19:38:56;;;;;;;7.32;1.50;;;8.60;99.90;;;;;;4871069;29;20056;-89
2021/11/03 19:41:28;;;;;;;2.05;0.57;;;8.40;99.90;;;;;;4870986;29;20069;-93
2021/11/03 19:43:56;;;;;;;0.55;0.25;;;8.20;99.90;;;;;;4868326;29;20144;-93
2021/11/03 19:46:27;;;;;;;3.28;0.77;;;8.10;99.90;;;;;;4865863;29;20052;-89
2021/11/03 19:48:59;;;;;;;3.55;1.10;;;8.10;99.90;;;;;;4882247;29;20041;-90
2021/11/03 19:51:42;;;;;;;6.03;2.95;;;8.10;99.90;;;;;;4850765;29;20586;-90
2021/11/03 19:54:26;;;;;;;1.80;0.60;;;8.10;99.90;;;;;;4865524;29;20492;-94
2021/11/03 19:57:03;;;;;;;3.15;1.90;;;8.10;99.90;;;;;;4871001;29;20105;-95
2021/11/03 19:59:56;;;;;;;4.63;2.40;;;8.10;99.90;;;;;;4828221;29;20117;-96
2021/11/03 20:02:25;;;;;;;;;;;8.10;99.90;;;;;;4878493;29;21630;-92
2021/11/03 20:04:58;;;;;;;7.07;1.48;;;8.10;99.90;;;;;;4883078;29;19935;-96
2021/11/03 20:07:47;;;;;;;3.65;1.20;;;8.10;99.90;;;;;;4886675;29;20052;-96
2021/11/03 20:10:27;;;;;;;1.48;0.80;;;8.10;99.90;;;;;;4864838;29;20402;-94
2021/11/03 20:12:56;;;;;;;3.22;0.60;;;8.20;99.90;;;;;;4861158;29;20574;-94
2021/11/03 20:15:24;;;;;;;1.75;0.90;;;8.20;99.90;;;;;;4885838;29;20050;-92
2021/11/03 20:17:52;;;;;;;1.75;0.47;;;8.20;99.90;;;;;;4860282;29;20057;-91
2021/11/03 20:20:21;;;;;;;1.35;0.50;;;8.30;99.90;;;;;;4875900;29;20052;-92
2021/11/03 20:22:49;;;;;;;1.83;0.77;;;8.30;99.90;;;;;;4874206;29;20045;-92
2021/11/03 20:25:21;;;;;;;2.72;1.13;;;8.30;99.90;;;;;;4868368;29;20479;-91